Time;durP1;ratioP1;P1;durP2;ratioP2;P2;SDS_P1;SDS_P2;PMS_P1;PMS_P2;Temp;Humidity;BMP_temperature;BMP_pressure;BME280_temperature;BME280_humidity;BME280_pressure;Samples;Min_cycle;Max_cycle;Signal;HPM_P1;HPM_P2
2021/08/13 00:00:13;;;;;;;10.90;8.50;;;23.60;99.90;;;;;;5059565;28;20490;-60
2021/08/13 00:02:40;;;;;;;14.90;8.80;;;23.50;99.90;;;;;;5066267;28;20840;-60
2021/08/13 00:05:09;;;;;;;12.20;8.57;;;23.30;99.90;;;;;;5070185;28;20485;-60
2021/08/13 00:07:36;;;;;;;11.97;8.67;;;23.30;99.90;;;;;;5062002;28;20845;-59
2021/08/13 00:10:04;;;;;;;11.47;9.87;;;23.40;99.90;;;;;;5063224;28;20468;-60
2021/08/13 00:12:31;;;;;;;14.90;8.80;;;23.50;99.90;;;;;;5066977;28;20489;-60
2021/08/13 00:15:00;;;;;;;12.10;8.83;;;23.50;99.90;;;;;;5052591;28;20985;-60
2021/08/13 00:17:27;;;;;;;10.60;9.50;;;23.60;99.90;;;;;;5065003;28;20533;-59
2021/08/13 00:19:54;;;;;;;11.07;9.47;;;23.60;99.90;;;;;;5062323;28;20462;-59
2021/08/13 00:22:22;;;;;;;12.33;9.87;;;23.50;99.90;;;;;;5063297;28;20502;-60
2021/08/13 00:24:51;;;;;;;14.07;9.10;;;23.40;99.90;;;;;;5064059;28;20553;-59
2021/08/13 00:27:18;;;;;;;12.00;10.10;;;23.30;99.90;;;;;;5070173;28;20512;-59
2021/08/13 00:29:45;;;;;;;10.70;9.60;;;23.10;99.90;;;;;;5061600;28;20493;-61
2021/08/13 00:32:14;;;;;;;11.43;9.90;;;23.00;99.90;;;;;;5069632;28;20466;-60
2021/08/13 00:34:41;;;;;;;14.40;9.50;;;22.90;99.90;;;;;;5062939;28;20464;-59
2021/08/13 00:37:08;;;;;;;10.80;9.03;;;22.80;99.90;;;;;;5069679;28;20507;-60
2021/08/13 00:39:36;;;;;;;11.10;9.20;;;22.90;99.90;;;;;;5068289;28;20471;-60
2021/08/13 00:42:03;;;;;;;11.87;10.53;;;22.90;99.90;;;;;;5062452;28;20446;-60
2021/08/13 00:44:31;;;;;;;12.37;10.30;;;22.90;99.90;;;;;;5069699;28;20483;-60
2021/08/13 00:46:58;;;;;;;12.43;10.17;;;22.90;99.90;;;;;;5061313;28;20492;-60
2021/08/13 00:49:27;;;;;;;10.43;9.43;;;22.80;99.90;;;;;;5069205;28;20469;-60
2021/08/13 00:51:54;;;;;;;17.13;9.83;;;22.80;99.90;;;;;;5060584;28;20459;-60
2021/08/13 00:54:21;;;;;;;13.50;10.20;;;22.80;99.90;;;;;;5060609;28;20660;-60
2021/08/13 00:56:48;;;;;;;10.20;9.13;;;22.80;99.90;;;;;;5071185;28;20476;-60
2021/08/13 00:59:16;;;;;;;12.00;10.80;;;22.90;99.90;;;;;;5065634;28;20466;-59
2021/08/13 01:01:43;;;;;;;11.07;9.60;;;23.00;99.90;;;;;;5072354;28;20470;-60
2021/08/13 01:04:10;;;;;;;11.03;9.50;;;23.00;99.90;;;;;;5068277;28;20492;-60
2021/08/13 01:06:39;;;;;;;13.20;10.23;;;23.00;99.90;;;;;;5062232;28;20473;-59
2021/08/13 01:09:06;;;;;;;15.47;9.00;;;22.80;99.90;;;;;;5067618;28;20462;-60
2021/08/13 01:11:44;;;;;;;10.00;8.43;;;22.90;99.90;;;;;;5066454;28;20474;-60
2021/08/13 01:14:18;;;;;;;12.07;9.23;;;22.90;99.90;;;;;;5064485;28;20574;-60
2021/08/13 01:16:50;;;;;;;11.00;9.47;;;23.00;99.90;;;;;;5069371;28;20458;-59
2021/08/13 01:19:23;;;;;;;11.23;8.73;;;23.00;99.90;;;;;;5072655;28;20466;-60
2021/08/13 01:21:55;;;;;;;11.80;9.30;;;23.00;99.90;;;;;;5065088;28;20542;-60
2021/08/13 01:24:25;;;;;;;9.30;8.17;;;23.00;99.90;;;;;;5069643;28;20987;-59
2021/08/13 01:26:58;;;;;;;10.87;8.57;;;23.00;99.90;;;;;;5074239;28;20455;-59
2021/08/13 01:29:37;;;;;;;10.67;9.30;;;22.90;99.90;;;;;;5074355;28;20450;-59
2021/08/13 01:32:30;;;;;;;9.13;8.23;;;22.90;99.90;;;;;;5073968;28;20458;-60
2021/08/13 01:35:03;;;;;;;9.83;8.40;;;22.90;99.90;;;;;;5074455;28;20482;-60
2021/08/13 01:37:31;;;;;;;9.10;8.20;;;22.90;99.90;;;;;;5074193;28;20447;-59
2021/08/13 01:40:01;;;;;;;12.10;9.27;;;22.90;99.90;;;;;;5074071;28;20451;-59
2021/08/13 01:42:29;;;;;;;10.47;9.30;;;22.90;99.90;;;;;;5073488;28;20479;-59
2021/08/13 01:44:57;;;;;;;12.50;10.00;;;22.80;99.90;;;;;;5074096;28;20466;-59
2021/08/13 01:47:26;;;;;;;10.00;9.00;;;22.70;99.90;;;;;;5073720;28;20503;-59
2021/08/13 01:49:54;;;;;;;11.57;9.23;;;22.60;99.90;;;;;;5074216;28;20482;-60
2021/08/13 01:52:24;;;;;;;10.07;9.07;;;22.50;99.90;;;;;;5073968;28;20438;-60
2021/08/13 01:54:53;;;;;;;11.10;9.30;;;22.50;99.90;;;;;;5053877;28;20483;-59
2021/08/13 01:57:21;;;;;;;11.13;8.97;;;22.50;99.90;;;;;;5064705;28;20451;-59
2021/08/13 01:59:48;;;;;;;10.17;9.07;;;22.60;99.90;;;;;;5073508;28;20505;-59
2021/08/13 02:02:15;;;;;;;9.87;8.57;;;22.60;99.90;;;;;;5073926;28;20451;-60
2021/08/13 02:04:44;;;;;;;12.53;8.33;;;22.70;99.90;;;;;;5072922;28;20524;-59
2021/08/13 02:07:12;;;;;;;12.13;10.23;;;22.70;99.90;;;;;;5064051;28;20459;-59
2021/08/13 02:09:40;;;;;;;11.10;9.43;;;22.60;99.90;;;;;;5064175;28;20450;-59
2021/08/13 02:12:08;;;;;;;11.00;9.73;;;22.60;99.90;;;;;;5073042;28;20446;-60
2021/08/13 02:14:35;;;;;;;11.50;9.70;;;22.50;99.90;;;;;;5073705;28;20474;-59
2021/08/13 02:17:07;;;;;;;10.63;9.43;;;22.40;99.90;;;;;;5073564;28;20593;-59
2021/08/13 02:19:38;;;;;;;14.97;11.50;;;22.30;99.90;;;;;;5073519;28;20449;-60
2021/08/13 02:22:05;;;;;;;11.53;10.00;;;22.40;99.90;;;;;;5073462;28;20488;-59
2021/08/13 02:24:32;;;;;;;12.90;9.83;;;22.30;99.90;;;;;;5073409;28;20494;-59
2021/08/13 02:27:02;;;;;;;13.80;10.23;;;22.40;99.90;;;;;;5072741;28;20952;-59
2021/08/13 02:29:29;;;;;;;12.23;9.77;;;22.40;99.90;;;;;;5073673;28;20542;-59
2021/08/13 02:31:56;;;;;;;11.57;9.50;;;22.40;99.90;;;;;;5073263;28;20454;-59
2021/08/13 02:34:23;;;;;;;11.57;9.73;;;22.30;99.90;;;;;;5072984;28;20471;-59
2021/08/13 02:36:56;;;;;;;13.33;9.60;;;22.20;99.90;;;;;;5072702;28;20447;-59
2021/08/13 02:39:28;;;;;;;12.30;9.87;;;22.20;99.90;;;;;;5073134;28;20446;-59
2021/08/13 02:41:57;;;;;;;11.53;9.67;;;22.20;99.90;;;;;;5072654;28;20454;-59
2021/08/13 02:44:30;;;;;;;12.23;9.50;;;22.20;99.90;;;;;;5072895;28;20844;-59
2021/08/13 02:47:01;;;;;;;12.87;9.17;;;22.20;99.90;;;;;;5072723;28;20967;-60
2021/08/13 02:49:29;;;;;;;13.70;11.27;;;22.20;99.90;;;;;;5073180;28;20860;-59
2021/08/13 02:52:01;;;;;;;14.23;9.97;;;22.20;99.90;;;;;;5072589;28;20867;-59
2021/08/13 02:54:31;;;;;;;11.50;10.20;;;22.30;99.90;;;;;;5073017;28;20467;-59
2021/08/13 02:56:58;;;;;;;13.93;10.70;;;22.30;99.90;;;;;;5072688;28;20454;-59
2021/08/13 02:59:31;;;;;;;13.67;10.80;;;22.40;99.90;;;;;;5061058;28;20447;-60
2021/08/13 03:02:02;;;;;;;16.03;9.37;;;22.30;99.90;;;;;;5068931;28;20458;-59
2021/08/13 03:04:30;;;;;;;11.03;8.93;;;22.20;99.90;;;;;;5072453;28;20493;-60
2021/08/13 03:06:59;;;;;;;10.90;9.57;;;22.10;99.90;;;;;;5072333;28;20906;-60
2021/08/13 03:09:27;;;;;;;10.53;9.47;;;22.00;99.90;;;;;;5072490;28;20450;-60
2021/08/13 03:11:55;;;;;;;10.50;9.40;;;22.00;99.90;;;;;;5072306;28;20480;-60
2021/08/13 03:14:23;;;;;;;10.33;9.07;;;22.10;99.90;;;;;;5072468;28;20964;-59
2021/08/13 03:16:53;;;;;;;13.90;10.03;;;22.10;99.90;;;;;;5072178;28;20475;-58
2021/08/13 03:19:21;;;;;;;13.87;10.80;;;22.00;99.90;;;;;;5071719;28;20817;-59
2021/08/13 03:21:48;;;;;;;12.70;10.67;;;21.90;99.90;;;;;;5072432;28;20538;-59
2021/08/13 03:24:16;;;;;;;12.20;10.23;;;21.90;99.90;;;;;;5072098;28;21039;-59
2021/08/13 03:26:43;;;;;;;19.33;10.43;;;21.80;99.90;;;;;;5072103;28;20454;-59
2021/08/13 03:29:10;;;;;;;11.47;9.00;;;21.80;99.90;;;;;;5072203;28;20504;-59
2021/08/13 03:31:39;;;;;;;15.53;9.70;;;21.60;99.90;;;;;;5072035;28;20507;-60
2021/08/13 03:34:10;;;;;;;13.50;8.87;;;21.60;99.90;;;;;;5071834;28;20462;-59
2021/08/13 03:36:38;;;;;;;9.83;8.83;;;21.60;99.90;;;;;;5071808;28;20497;-59
2021/08/13 03:39:07;;;;;;;10.53;8.60;;;21.70;99.90;;;;;;5071955;28;20458;-59
2021/08/13 03:41:35;;;;;;;10.70;9.20;;;21.60;99.90;;;;;;5071964;28;20442;-59
2021/08/13 03:44:02;;;;;;;11.10;9.00;;;21.60;99.90;;;;;;5070833;28;20478;-59
2021/08/13 03:46:30;;;;;;;17.80;9.53;;;21.70;99.90;;;;;;5071493;28;20451;-59
2021/08/13 03:48:58;;;;;;;14.70;9.10;;;21.70;99.90;;;;;;5071909;28;20941;-59
2021/08/13 03:51:26;;;;;;;13.30;9.90;;;21.80;99.90;;;;;;5071846;28;20439;-59
2021/08/13 03:53:53;;;;;;;10.43;9.23;;;21.80;99.90;;;;;;5071456;28;20481;-59
2021/08/13 03:56:20;;;;;;;10.27;8.90;;;21.80;99.90;;;;;;5070391;28;20509;-60
2021/08/13 03:58:47;;;;;;;11.77;8.63;;;21.80;99.90;;;;;;5080069;22;20917;-53
2021/08/13 04:01:14;;;;;;;11.17;8.67;;;21.80;99.90;;;;;;5059933;28;20451;-53
2021/08/13 04:03:41;;;;;;;12.03;9.40;;;21.80;99.90;;;;;;5051425;28;20475;-53
2021/08/13 04:06:08;;;;;;;10.17;7.80;;;21.90;99.90;;;;;;5050722;28;20455;-54
2021/08/13 04:08:37;;;;;;;9.70;7.93;;;21.90;99.90;;;;;;5045375;28;20545;-54
2021/08/13 04:11:04;;;;;;;10.70;7.93;;;21.80;99.90;;;;;;5059885;28;20449;-53
2021/08/13 04:13:31;;;;;;;10.53;8.80;;;21.80;99.90;;;;;;5070979;28;20449;-53
2021/08/13 04:15:58;;;;;;;12.83;8.13;;;21.70;99.90;;;;;;5071504;28;20512;-53
2021/08/13 04:18:25;;;;;;;11.97;8.80;;;21.70;99.90;;;;;;5071427;28;20467;-53
2021/08/13 04:20:52;;;;;;;10.40;8.33;;;21.70;99.90;;;;;;5071604;28;20443;-53
2021/08/13 04:23:20;;;;;;;10.80;8.30;;;21.60;99.90;;;;;;5071377;28;20909;-52
2021/08/13 04:25:49;;;;;;;8.80;7.90;;;21.70;99.90;;;;;;5071896;28;20474;-53
2021/08/13 04:28:16;;;;;;;9.13;7.93;;;21.70;99.90;;;;;;5077666;28;20992;-53
2021/08/13 04:30:43;;;;;;;12.87;9.60;;;21.80;99.90;;;;;;5077824;28;20453;-53
2021/08/13 04:33:11;;;;;;;10.80;8.90;;;21.70;99.90;;;;;;5077783;28;20529;-53
2021/08/13 04:35:38;;;;;;;10.00;9.00;;;21.60;99.90;;;;;;5078138;28;20438;-52
2021/08/13 04:38:06;;;;;;;11.60;8.30;;;21.80;99.90;;;;;;5077525;28;20473;-53
2021/08/13 04:40:34;;;;;;;9.50;8.50;;;21.90;99.90;;;;;;5077970;28;20451;-53
2021/08/13 04:43:02;;;;;;;11.53;9.10;;;21.80;99.90;;;;;;5077522;28;20450;-53
2021/08/13 04:45:29;;;;;;;18.20;9.47;;;21.70;99.90;;;;;;5078176;28;20486;-53
2021/08/13 04:47:56;;;;;;;11.10;9.53;;;21.80;99.90;;;;;;5077535;28;20466;-53
2021/08/13 04:50:24;;;;;;;10.97;9.33;;;21.80;99.90;;;;;;5077559;28;20529;-52
2021/08/13 04:52:52;;;;;;;11.20;10.00;;;21.80;99.90;;;;;;5077653;28;20447;-53
2021/08/13 04:55:20;;;;;;;12.20;9.10;;;21.80;99.90;;;;;;5077046;28;20455;-53
2021/08/13 04:57:47;;;;;;;10.43;8.57;;;21.90;99.90;;;;;;5076748;28;20478;-52
2021/08/13 05:00:16;;;;;;;11.93;8.27;;;22.10;99.90;;;;;;5078185;28;20545;-53
2021/08/13 05:02:44;;;;;;;9.67;8.43;;;22.30;99.90;;;;;;5077970;28;20527;-53
2021/08/13 05:05:12;;;;;;;10.40;8.53;;;22.40;99.90;;;;;;5077728;28;20540;-53
2021/08/13 05:07:39;;;;;;;13.03;8.80;;;22.60;99.90;;;;;;5077593;28;20483;-53
2021/08/13 05:10:10;;;;;;;12.77;9.10;;;22.70;99.90;;;;;;5077738;28;20862;-52
2021/08/13 05:12:38;;;;;;;12.23;8.80;;;22.70;99.90;;;;;;5076955;28;20457;-53
2021/08/13 05:15:06;;;;;;;9.33;8.40;;;22.80;99.90;;;;;;5076073;28;20531;-53
2021/08/13 05:17:35;;;;;;;9.57;7.83;;;23.10;99.90;;;;;;5075520;28;20470;-53
2021/08/13 05:20:03;;;;;;;9.33;8.30;;;23.70;99.90;;;;;;5075375;28;20446;-52
2021/08/13 05:22:33;;;;;;;8.43;7.63;;;24.20;99.90;;;;;;5076586;28;20466;-53
2021/08/13 05:25:01;;;;;;;9.40;8.00;;;24.60;99.90;;;;;;5089725;28;20578;-53
2021/08/13 05:27:28;;;;;;;10.13;8.47;;;24.50;99.90;;;;;;5096143;28;20472;-53
2021/08/13 05:29:55;;;;;;;13.83;8.57;;;24.10;99.90;;;;;;5091480;28;20469;-53
2021/08/13 05:32:24;;;;;;;8.60;7.80;;;23.80;99.90;;;;;;5077490;28;20446;-53
2021/08/13 05:34:53;;;;;;;11.87;8.20;;;23.60;99.90;;;;;;5083196;28;20449;-53
2021/08/13 05:37:24;;;;;;;9.20;8.27;;;23.40;99.90;;;;;;5086739;28;20458;-53
2021/08/13 05:39:51;;;;;;;10.03;7.43;;;23.30;99.90;;;;;;5073518;28;20492;-53
2021/08/13 05:42:21;;;;;;;9.97;8.10;;;23.30;99.90;;;;;;5074338;28;20451;-54
2021/08/13 05:44:48;;;;;;;9.63;8.63;;;23.30;99.90;;;;;;5074685;28;20486;-54
2021/08/13 05:47:16;;;;;;;9.13;8.00;;;23.60;99.90;;;;;;5073894;28;20443;-54
2021/08/13 05:49:44;;;;;;;14.40;8.40;;;24.40;99.90;;;;;;5074164;28;20452;-55
2021/08/13 05:52:12;;;;;;;13.20;9.00;;;24.80;99.90;;;;;;5072727;28;20447;-55
2021/08/13 05:54:39;;;;;;;10.50;9.40;;;24.40;99.90;;;;;;5073487;28;21006;-54
2021/08/13 05:57:07;;;;;;;10.20;8.00;;;24.50;99.90;;;;;;5073969;28;20454;-54
2021/08/13 05:59:34;;;;;;;11.50;8.60;;;25.00;99.90;;;;;;5074207;28;20469;-53
2021/08/13 06:02:01;;;;;;;8.67;7.87;;;25.00;99.90;;;;;;5074054;28;20446;-55
2021/08/13 06:04:28;;;;;;;9.73;8.23;;;25.50;99.90;;;;;;5073895;28;20504;-55
2021/08/13 06:06:55;;;;;;;10.37;8.50;;;26.40;99.90;;;;;;5072879;28;20450;-55
2021/08/13 06:09:23;;;;;;;11.00;9.13;;;27.20;99.90;;;;;;5073710;28;20525;-54
2021/08/13 06:11:50;;;;;;;11.80;9.50;;;28.00;99.90;;;;;;5079609;28;20458;-55
2021/08/13 06:14:17;;;;;;;11.13;8.80;;;28.50;99.90;;;;;;5090222;28;20944;-55
2021/08/13 06:16:44;;;;;;;14.20;8.40;;;29.00;99.90;;;;;;5076333;28;20462;-56
2021/08/13 06:19:11;;;;;;;9.33;7.73;;;29.40;99.90;;;;;;5081895;28;20477;-56
2021/08/13 06:21:38;;;;;;;10.50;8.07;;;29.20;99.90;;;;;;5088376;28;20503;-55
2021/08/13 06:24:06;;;;;;;10.63;8.43;;;28.50;99.90;;;;;;5092713;28;20534;-56
2021/08/13 06:26:34;;;;;;;9.97;7.80;;;27.90;99.90;;;;;;5088175;28;20450;-56
2021/08/13 06:29:01;;;;;;;12.13;7.53;;;27.50;99.90;;;;;;5087060;28;20470;-54
2021/08/13 06:31:28;;;;;;;10.93;8.50;;;27.70;99.90;;;;;;5093175;28;20460;-55
2021/08/13 06:33:55;;;;;;;8.90;7.50;;;28.40;99.90;;;;;;5078884;28;20443;-55
2021/08/13 06:36:22;;;;;;;9.00;7.23;;;29.10;99.90;;;;;;5091197;28;20450;-57
2021/08/13 06:38:49;;;;;;;8.20;7.37;;;29.90;99.90;;;;;;5075777;28;20472;-56
2021/08/13 06:41:16;;;;;;;12.30;8.73;;;30.40;99.90;;;;;;5074015;28;20505;-56
2021/08/13 06:43:44;;;;;;;8.90;7.80;;;30.70;99.90;;;;;;5072836;28;20451;-56
2021/08/13 06:46:11;;;;;;;10.40;7.60;;;30.60;99.90;;;;;;5086376;28;20462;-57
2021/08/13 06:48:39;;;;;;;12.37;8.30;;;30.70;99.90;;;;;;5086025;28;20515;-55
2021/08/13 06:51:05;;;;;;;7.83;6.90;;;30.40;99.90;;;;;;5091945;28;20495;-55
2021/08/13 06:53:33;;;;;;;9.47;7.77;;;30.00;99.90;;;;;;5092931;28;20876;-56
2021/08/13 06:56:00;;;;;;;10.43;8.17;;;30.00;99.90;;;;;;5092685;28;20545;-56
2021/08/13 06:58:27;;;;;;;10.47;8.70;;;30.20;99.90;;;;;;5075224;28;20912;-57
2021/08/13 07:00:55;;;;;;;12.80;7.53;;;30.20;99.90;;;;;;5083913;28;20454;-56
2021/08/13 07:03:22;;;;;;;8.77;7.37;;;30.50;99.90;;;;;;5071844;28;20451;-57
2021/08/13 07:05:49;;;;;;;10.47;8.40;;;30.70;99.90;;;;;;5072612;28;21000;-58
2021/08/13 07:08:17;;;;;;;9.10;8.20;;;31.00;99.90;;;;;;5072543;28;20942;-58
2021/08/13 07:10:45;;;;;;;21.30;7.40;;;31.50;99.90;;;;;;5086791;28;20446;-56
2021/08/13 07:13:12;;;;;;;20.43;8.03;;;31.80;99.90;;;;;;5092159;28;20464;-56
2021/08/13 07:15:39;;;;;;;9.83;7.87;;;32.20;99.90;;;;;;5093092;28;20446;-58
2021/08/13 07:18:07;;;;;;;8.13;7.23;;;32.50;99.90;;;;;;5068448;28;20525;-55
2021/08/13 07:20:34;;;;;;;10.97;7.33;;;32.50;99.90;;;;;;5087385;28;20978;-56
2021/08/13 07:23:01;;;;;;;8.17;7.37;;;32.80;99.90;;;;;;5091742;28;20464;-57
2021/08/13 07:25:28;;;;;;;11.37;7.97;;;32.60;99.90;;;;;;5092103;28;20834;-56
2021/08/13 07:27:55;;;;;;;8.70;7.80;;;32.40;99.90;;;;;;5087279;28;20474;-57
2021/08/13 07:30:22;;;;;;;14.20;8.33;;;32.80;99.90;;;;;;5072165;28;20952;-57
2021/08/13 07:32:49;;;;;;;9.70;8.80;;;32.80;99.90;;;;;;5068231;28;20533;-58
2021/08/13 07:35:18;;;;;;;10.25;7.60;;;33.10;99.90;;;;;;5086604;28;20452;-58
2021/08/13 07:37:45;;;;;;;11.43;8.23;;;33.70;99.90;;;;;;5052991;28;20229;-56
2021/08/13 07:40:12;;;;;;;11.20;8.00;;;33.00;99.90;;;;;;5071697;28;20461;-56
2021/08/13 07:42:41;;;;;;;10.50;8.33;;;33.10;99.90;;;;;;5071757;28;20948;-57
2021/08/13 07:45:10;;;;;;;8.20;7.40;;;33.20;99.90;;;;;;5071573;28;20474;-57
2021/08/13 07:47:37;;;;;;;12.13;9.00;;;33.40;99.90;;;;;;5068137;28;20886;-58
2021/08/13 07:50:05;;;;;;;9.40;8.00;;;33.70;99.90;;;;;;5080621;28;20454;-57
2021/08/13 07:52:33;;;;;;;10.93;8.70;;;33.80;99.90;;;;;;5079455;28;20450;-58
2021/08/13 07:55:00;;;;;;;14.90;8.80;;;33.80;99.90;;;;;;5091591;28;20442;-58
2021/08/13 07:57:27;;;;;;;9.43;8.17;;;33.20;99.90;;;;;;5091395;28;20450;-56
2021/08/13 07:59:54;;;;;;;12.23;8.97;;;33.20;99.90;;;;;;5077475;28;20451;-57
2021/08/13 08:02:26;;;;;;;8.60;7.80;;;33.10;99.90;;;;;;5070969;28;20504;-55
2021/08/13 08:04:53;;;;;;;8.80;8.00;;;33.30;99.90;;;;;;5073682;28;20599;-57
2021/08/13 08:07:20;;;;;;;13.83;8.30;;;33.30;99.90;;;;;;5075740;28;20824;-56
2021/08/13 08:09:49;;;;;;;10.37;8.70;;;32.90;99.90;;;;;;5070178;28;20956;-56
2021/08/13 08:12:16;;;;;;;8.97;8.17;;;32.30;99.90;;;;;;5071631;28;20451;-55
2021/08/13 08:14:43;;;;;;;9.20;8.30;;;32.00;99.90;;;;;;5071749;28;20439;-56
2021/08/13 08:17:10;;;;;;;10.57;8.10;;;32.10;99.90;;;;;;5071420;28;20454;-56
2021/08/13 08:19:37;;;;;;;8.97;8.07;;;32.10;99.90;;;;;;5075680;28;20461;-56
2021/08/13 08:22:05;;;;;;;9.17;8.20;;;32.50;99.90;;;;;;5071103;28;20451;-57
2021/08/13 08:24:32;;;;;;;8.67;7.83;;;32.80;99.90;;;;;;5075333;28;20446;-56
2021/08/13 08:27:00;;;;;;;9.57;8.40;;;33.00;99.90;;;;;;5072371;28;20491;-57
2021/08/13 08:29:27;;;;;;;9.63;8.67;;;33.30;99.90;;;;;;5070818;28;20535;-57
2021/08/13 08:31:54;;;;;;;8.70;7.90;;;33.60;99.90;;;;;;5082792;28;20540;-55
2021/08/13 08:34:21;;;;;;;9.00;8.17;;;33.90;99.90;;;;;;5076279;28;20447;-56
2021/08/13 08:36:48;;;;;;;10.13;9.07;;;33.80;99.90;;;;;;5071594;28;20508;-55
2021/08/13 08:39:15;;;;;;;11.97;8.60;;;33.30;99.90;;;;;;5070563;28;20524;-57
2021/08/13 08:41:44;;;;;;;10.20;8.57;;;32.80;99.90;;;;;;5071297;28;20875;-56
2021/08/13 08:44:13;;;;;;;8.23;7.43;;;32.90;99.90;;;;;;5070899;28;21026;-57
2021/08/13 08:46:40;;;;;;;8.37;7.57;;;33.30;99.90;;;;;;5070778;28;20513;-56
2021/08/13 08:49:10;;;;;;;9.07;8.27;;;33.30;99.90;;;;;;5071143;28;20474;-57
2021/08/13 08:51:37;;;;;;;9.40;8.50;;;33.40;99.90;;;;;;5071312;28;20454;-55
2021/08/13 08:54:05;;;;;;;8.90;8.10;;;33.40;99.90;;;;;;5069993;28;20458;-57
2021/08/13 08:56:33;;;;;;;10.40;8.10;;;33.30;99.90;;;;;;5070700;28;20907;-56
2021/08/13 08:59:00;;;;;;;8.83;7.97;;;33.00;99.90;;;;;;5070906;28;20478;-55
2021/08/13 09:01:28;;;;;;;8.93;8.00;;;32.90;99.90;;;;;;5071052;28;20500;-56
2021/08/13 09:03:56;;;;;;;9.57;8.30;;;33.20;99.90;;;;;;5071210;28;20520;-58
2021/08/13 09:06:23;;;;;;;9.60;8.43;;;33.60;99.90;;;;;;5070915;28;20535;-56
2021/08/13 09:08:51;;;;;;;9.27;8.30;;;33.80;99.90;;;;;;5070749;28;20462;-57
2021/08/13 09:11:19;;;;;;;8.93;8.03;;;34.00;99.90;;;;;;5071020;28;20496;-57
2021/08/13 09:13:59;;;;;;;9.30;8.40;;;34.50;99.90;;;;;;5073571;28;20538;-57
2021/08/13 09:16:28;;;;;;;10.13;8.20;;;34.60;99.90;;;;;;5074133;28;20982;-56
2021/08/13 09:19:00;;;;;;;13.67;8.63;;;34.50;99.90;;;;;;5074209;28;20520;-56
2021/08/13 09:21:27;;;;;;;10.07;9.10;;;34.30;99.90;;;;;;5074748;28;20538;-56
2021/08/13 09:23:59;;;;;;;9.83;8.03;;;34.60;99.90;;;;;;5074501;28;20450;-57
2021/08/13 09:26:27;;;;;;;9.43;8.47;;;34.60;99.90;;;;;;5073934;28;20485;-58
2021/08/13 09:28:58;;;;;;;11.27;8.37;;;34.80;99.90;;;;;;5073952;28;20528;-58
2021/08/13 09:31:27;;;;;;;10.63;9.00;;;35.20;99.90;;;;;;5073886;28;20885;-57
2021/08/13 09:33:58;;;;;;;10.30;9.20;;;35.40;99.90;;;;;;5074456;28;20981;-57
2021/08/13 09:36:26;;;;;;;10.90;8.90;;;35.10;99.90;;;;;;5074457;28;20864;-58
2021/08/13 09:39:05;;;;;;;12.03;9.80;;;34.40;99.90;;;;;;5074016;28;20516;-56
2021/08/13 09:41:43;;;;;;;11.43;8.60;;;34.90;99.90;;;;;;5074351;28;20457;-58
2021/08/13 09:44:11;;;;;;;11.37;9.23;;;34.60;99.90;;;;;;5074483;28;20443;-58
2021/08/13 09:46:38;;;;;;;11.13;8.80;;;35.10;99.90;;;;;;5074239;28;20532;-60
2021/08/13 09:49:17;;;;;;;12.00;9.30;;;35.30;99.90;;;;;;5073395;28;20846;-57
2021/08/13 09:51:44;;;;;;;11.43;9.47;;;35.40;99.90;;;;;;5059604;28;20446;-56
2021/08/13 09:54:12;;;;;;;10.60;9.60;;;35.10;99.90;;;;;;5073818;28;20450;-58
2021/08/13 09:56:41;;;;;;;9.90;9.00;;;35.10;99.90;;;;;;5073883;28;20447;-58
2021/08/13 09:59:13;;;;;;;12.43;8.87;;;34.80;99.70;;;;;;5073424;28;20471;-58
2021/08/13 10:01:44;;;;;;;14.60;8.90;;;34.80;99.90;;;;;;5073756;28;20443;-58
2021/08/13 10:04:11;;;;;;;9.20;8.30;;;35.20;99.90;;;;;;5073851;28;20451;-58
2021/08/13 10:06:41;;;;;;;9.97;8.97;;;35.40;98.30;;;;;;5100628;22;20505;-57
2021/08/13 10:09:22;;;;;;;11.30;8.80;;;35.20;99.40;;;;;;5090701;28;20944;-56
2021/08/13 10:11:57;;;;;;;12.77;7.90;;;35.40;99.40;;;;;;5085554;28;20473;-57
2021/08/13 10:14:33;;;;;;;11.57;9.07;;;35.50;99.90;;;;;;5087605;28;20450;-57
2021/08/13 10:17:11;;;;;;;9.50;8.60;;;35.20;97.40;;;;;;5079082;28;20489;-57
2021/08/13 10:19:40;;;;;;;9.63;8.63;;;35.00;99.50;;;;;;5091428;28;20539;-56
2021/08/13 10:22:09;;;;;;;10.63;8.73;;;34.90;97.60;;;;;;5087783;28;20480;-59
2021/08/13 10:24:37;;;;;;;10.40;8.07;;;34.90;97.90;;;;;;5080385;28;20451;-57
2021/08/13 10:27:05;;;;;;;10.40;8.57;;;35.20;98.80;;;;;;5086897;28;20478;-56
2021/08/13 10:29:33;;;;;;;10.30;8.63;;;35.40;97.20;;;;;;5089985;28;20454;-56
2021/08/13 10:32:01;;;;;;;12.50;8.40;;;34.80;99.20;;;;;;5086561;28;20451;-57
2021/08/13 10:34:28;;;;;;;9.63;8.50;;;33.90;99.90;;;;;;5072101;28;20454;-57
2021/08/13 10:36:56;;;;;;;13.80;10.00;;;34.50;99.90;;;;;;5073158;28;20825;-56
2021/08/13 10:39:32;;;;;;;11.50;8.60;;;34.80;99.90;;;;;;5072346;28;20455;-57
2021/08/13 10:42:02;;;;;;;9.60;8.60;;;35.10;99.90;;;;;;5091796;28;20445;-56
2021/08/13 10:44:34;;;;;;;8.93;8.10;;;34.90;99.90;;;;;;5092175;28;20511;-56
2021/08/13 10:47:09;;;;;;;12.30;7.90;;;34.40;99.90;;;;;;5087295;28;20494;-56
2021/08/13 10:49:39;;;;;;;12.57;7.57;;;34.00;99.90;;;;;;5076617;28;20843;-57
2021/08/13 10:52:07;;;;;;;9.80;8.03;;;34.30;99.90;;;;;;5090705;28;20196;-56
2021/08/13 10:54:43;;;;;;;8.27;7.47;;;33.30;99.90;;;;;;5091525;28;20450;-56
2021/08/13 10:57:11;;;;;;;10.30;7.10;;;32.70;99.90;;;;;;5077810;28;20469;-55
2021/08/13 10:59:55;;;;;;;8.60;7.10;;;31.70;99.90;;;;;;5078075;28;20458;-57
2021/08/13 11:02:23;;;;;;;7.80;6.90;;;31.80;99.90;;;;;;5091131;28;20445;-55
2021/08/13 11:04:50;;;;;;;10.00;7.03;;;32.20;99.90;;;;;;5091105;28;20896;-55
2021/08/13 11:07:55;;;;;;;9.10;7.50;;;32.40;99.90;;;;;;5051934;28;1139124;-55
2021/08/13 11:10:56;;;;;;;12.90;6.80;;;31.80;99.90;;;;;;5092244;28;20200;-55
2021/08/13 11:13:24;;;;;;;9.10;6.30;;;31.80;99.90;;;;;;5088294;28;20449;-56
2021/08/13 11:15:51;;;;;;;7.37;6.10;;;31.10;99.90;;;;;;5072095;28;20542;-55
2021/08/13 11:18:32;;;;;;;7.07;6.40;;;30.50;99.90;;;;;;5072136;28;20985;-57
2021/08/13 11:21:00;;;;;;;11.20;5.80;;;30.70;99.90;;;;;;5082950;28;20450;-56
2021/08/13 11:23:27;;;;;;;99.40;13.20;;;30.40;99.90;;;;;;5091534;28;20810;-56
2021/08/13 11:25:56;;;;;;;9.93;6.73;;;30.30;99.90;;;;;;5092045;28;20478;-55
2021/08/13 11:28:25;;;;;;;7.07;6.37;;;30.50;99.90;;;;;;5092091;28;20895;-56
2021/08/13 11:30:53;;;;;;;22.90;7.30;;;30.50;99.90;;;;;;5083765;28;21046;-55
2021/08/13 11:33:38;;;;;;;7.17;6.30;;;30.80;99.90;;;;;;5089501;28;20450;-55
2021/08/13 11:36:06;;;;;;;55.33;11.63;;;30.50;99.90;;;;;;5084628;28;20524;-56
2021/08/13 11:38:59;;;;;;;10.10;6.63;;;30.00;99.90;;;;;;5092019;28;20511;-56
2021/08/13 11:41:29;;;;;;;7.70;6.60;;;30.30;99.90;;;;;;5091274;28;20870;-54
2021/08/13 11:43:58;;;;;;;8.37;6.70;;;30.60;99.90;;;;;;5091807;28;20511;-55
2021/08/13 11:46:26;;;;;;;12.87;7.50;;;30.50;99.90;;;;;;5091552;28;20480;-55
2021/08/13 11:48:56;;;;;;;8.70;7.17;;;30.30;99.90;;;;;;5091851;28;20458;-57
2021/08/13 11:51:25;;;;;;;10.93;7.00;;;30.50;99.90;;;;;;5086401;28;20453;-55
2021/08/13 11:53:53;;;;;;;11.37;7.30;;;31.00;99.90;;;;;;5091399;28;20503;-56
2021/08/13 11:56:24;;;;;;;7.60;6.90;;;31.10;99.90;;;;;;5091620;28;21015;-55
2021/08/13 11:59:00;;;;;;;7.50;6.80;;;31.10;99.90;;;;;;5091510;28;20671;-55
2021/08/13 12:01:28;;;;;;;9.00;6.70;;;30.60;99.90;;;;;;5089311;28;20461;-55
2021/08/13 12:03:55;;;;;;;9.43;7.43;;;30.90;99.90;;;;;;5091607;28;20462;-55
2021/08/13 12:06:22;;;;;;;11.30;7.00;;;30.90;99.90;;;;;;5095348;28;20488;-55
2021/08/13 12:08:50;;;;;;;7.67;6.90;;;30.90;99.90;;;;;;5090490;28;20437;-55
2021/08/13 12:11:24;;;;;;;11.50;7.67;;;31.10;99.90;;;;;;5093448;28;20456;-56
2021/08/13 12:13:52;;;;;;;10.30;7.27;;;31.10;99.90;;;;;;5095184;28;20446;-56
2021/08/13 12:16:21;;;;;;;9.27;6.60;;;31.10;99.90;;;;;;5090511;28;20447;-55
2021/08/13 12:18:48;;;;;;;7.77;6.97;;;31.20;99.90;;;;;;5082771;28;20900;-56
2021/08/13 12:21:19;;;;;;;10.77;6.60;;;31.20;99.90;;;;;;5088481;28;20499;-56
2021/08/13 12:23:57;;;;;;;8.17;6.40;;;31.40;99.90;;;;;;5091262;28;20445;-56
2021/08/13 12:26:28;;;;;;;7.50;6.80;;;31.60;99.90;;;;;;5083545;28;20578;-56
2021/08/13 12:28:55;;;;;;;10.33;6.90;;;31.50;99.90;;;;;;5083947;28;20464;-55
2021/08/13 12:31:24;;;;;;;8.57;6.80;;;31.30;99.90;;;;;;5077786;28;20510;-56
2021/08/13 12:33:55;;;;;;;9.00;6.70;;;31.40;99.90;;;;;;5070838;28;20443;-56
2021/08/13 12:36:22;;;;;;;7.57;6.50;;;31.40;99.90;;;;;;5079816;28;20474;-55
2021/08/13 12:38:56;;;;;;;15.87;6.30;;;31.40;99.90;;;;;;5091207;28;20947;-55
2021/08/13 12:41:23;;;;;;;8.13;6.30;;;31.40;99.90;;;;;;5090708;28;20946;-57
2021/08/13 12:43:50;;;;;;;9.10;6.30;;;31.20;99.90;;;;;;5090698;28;20453;-55
2021/08/13 12:46:18;;;;;;;7.37;6.33;;;31.10;99.90;;;;;;5090863;28;20478;-55